Weather observations for the past three days for
Roy Hurd Memorial Airport
Metric (Imperial)
Date Time (cdt) Wind (kph) Vis. (km) Weather Sky Cond. Temperature (ºC) Relative Humidity Wind Chill (°C) Heat Index (°C) Pressure Precipitation (cm)
Air Dwpt 6 hour altimeter (cm) sea level (mb) 1 hr 3 hr 6 hr
Max. Min.
07 16:10 E 19 G 30 16.09 Overcast BKN050 BKN070 OVC085 25 9 36% 26 76.17 0.0
07 15:55 SE 13 G 24 16.09 Mostly Cloudy SCT070 BKN085 25 9 36% 26 76.17 0.0
07 15:35 SE 15 16.09 Mostly Cloudy BKN085 24 9 39% 25 76.2 0.0
07 15:15 Vrbl 9 16.09 A Few Clouds FEW080 24 9 39% 25 76.23 0.0
07 14:55 E 13 16.09 Fair CLR 23 9 41% 76.25 0.0
07 14:35 NE 9 16.09 Fair CLR 23 9 41% 76.28 0.0
07 14:10 Vrbl 9 G 19 16.09 A Few Clouds FEW045 22 8 41% 76.3 0.0
07 13:55 Vrbl 7 G 22 16.09 Partly Cloudy SCT046 22 8 41% 76.33 0.0
07 13:35 Vrbl 11 G 22 16.09 Fair CLR 21 8 43% 76.38 0.0
07 13:15 Calm 16.09 Fair CLR 21 8 43% 76.4 0.0
07 12:55 Vrbl 9 G 24 16.09 Fair CLR 21 8 43% 76.43 0.0
07 12:35 NE 11 16.09 Fair CLR 20 8 46% 76.45 0.0
07 12:15 Calm 16.09 Fair CLR 20 8 46% 76.45 0.0
07 11:55 Vrbl 11 16.09 Fair CLR 19 8 49% 76.48 0.0
07 11:35 E 15 11.27 Fair CLR 19 8 49% 76.48 0.0
07 11:15 NE 9 G 20 16.09 Partly Cloudy SCT037 18 8 52% 76.5 0.0
07 10:55 E 15 16.09 Mostly Cloudy BKN037 18 8 52% 76.53 0.0
07 10:35 E 19 16.09 Mostly Cloudy BKN037 17 8 56% 76.53 0.0
07 10:15 E 17 16.09 Overcast OVC036 17 7 52% 76.53 0.0
07 09:55 E 19 16.09 Overcast OVC035 16 8 59% 76.56 0.0
07 09:35 E 22 16.09 Mostly Cloudy BKN036 16 8 59% 76.56 0.0
07 09:15 E 19 G 31 16.09 A Few Clouds FEW038 15 8 63% 76.56 0.0
07 08:55 E 24 16.09 Fair CLR 15 8 63% 76.56 0.0
07 08:35 E 28 16.09 Fair CLR 14 8 67% 76.53 0.0
07 08:15 E 26 G 41 16.09 Fair CLR 14 8 67% 76.53 0.0
07 07:55 E 22 G 33 16.09 Fair CLR 13 8 72% 76.5 0.0
07 07:35 E 22 G 35 16.09 Fair CLR 13 8 72% 76.48 0.0
07 07:10 E 30 G 43 16.09 Fair CLR 13 8 72% 76.43 0.0
07 06:55 E 26 G 37 16.09 Fair CLR 13 8 72% 76.43 0.0
07 06:35 E 24 G 35 16.09 Fair CLR 14 8 67% 76.4 0.0
07 06:15 E 26 G 37 16.09 Fair CLR 14 8 67% 76.38 0.0
07 05:55 E 26 G 41 16.09 Fair CLR 14 9 72% 76.4 0.0
07 05:35 E 28 G 41 16.09 Fair CLR 15 10 72% 76.35 0.0
07 05:15 E 28 G 44 16.09 Fair CLR 15 11 77% 76.33 0.0
07 04:55 E 30 G 39 16.09 Fair CLR 15 10 72% 76.33 0.0
07 04:35 E 30 16.09 Fair CLR 16 11 72% 76.3 0.0
07 04:15 E 26 G 39 16.09 Fair CLR 16 11 72% 76.28 0.0
07 03:55 E 26 G 39 16.09 Fair CLR 17 13 77% 76.25 0.0
07 03:35 E 24 G 35 16.09 Fair CLR 17 12 73% 76.25 0.0
07 03:15 E 22 G 33 16.09 Fair CLR 17 12 73% 76.25 0.0
07 02:55 E 19 8.05 Fair with Haze CLR 17 12 73% 76.23 0.0
07 02:35 E 17 4.02 Fair with Haze CLR 18 12 68% 76.23 0.0
07 02:15 E 13 4.02 Fair with Haze CLR 18 12 68% 76.2 0.0
07 01:55 SE 20 4.02 Fair with Haze CLR 19 12 64% 76.17 0.0
07 01:30 SE 19 3.22 Fair with Haze CLR 19 12 64% 76.17 0.0
07 01:10 E 15 4.83 Fair with Haze CLR 20 11 56% 76.2 0.0
07 00:55 E 19 4.83 Fair with Haze CLR 20 11 56% 76.17 0.0
07 00:35 SE 13 6.44 Fair with Haze CLR 20 10 53% 76.17 0.0
07 00:15 SE 17 11.27 Fair CLR 21 9 46% 76.15 0.0
06 23:55 SE 13 16.09 Fair CLR 21 7 40% 76.12 0.0
06 23:35 SE 13 14.48 Fair CLR 21 7 40% 76.12 0.0
06 23:15 SE 13 16.09 Fair CLR 22 6 36% 76.12 0.0
06 22:55 SE 11 16.09 Fair CLR 23 5 31% 76.1 0.0
06 22:35 SE 9 16.09 Fair CLR 24 5 29% 25 76.07 0.0
06 22:15 Calm 16.09 Fair CLR 24 5 29% 25 76.02 0.0
06 21:50 SE 11 16.09 Fair CLR 24 5 29% 25 76 0.0
06 21:35 SE 9 16.09 Fair CLR 25 5 28% 25 75.97 0.0
06 21:15 SE 7 16.09 Fair CLR 25 5 28% 25 75.95 0.0
06 20:50 SE 11 16.09 Fair CLR 26 5 26% 26 75.92 0.0
06 20:35 SE 13 16.09 Fair CLR 27 4 23% 26 75.9 0.0
06 20:15 SE 15 16.09 Fair CLR 28 4 21% 27 75.87 0.0
06 19:55 SE 7 16.09 Fair CLR 28 4 21% 27 75.87 0.0
06 19:30 S 17 16.09 Fair CLR 28 4 21% 27 75.84 0.0
06 19:15 S 11 G 20 16.09 Fair CLR 28 4 21% 27 75.84 0.0
06 18:55 SE 15 G 24 16.09 Fair CLR 28 4 21% 27 75.84 0.0
06 18:35 Vrbl 9 16.09 Fair CLR 28 4 21% 27 75.84 0.0
06 18:15 S 15 16.09 Fair CLR 28 4 21% 27 75.82 0.0
06 17:55 Vrbl 6 G 20 16.09 Fair CLR 28 5 23% 27 75.82 0.0
06 17:35 Calm 16.09 Fair CLR 28 5 23% 27 75.84 0.0
06 17:15 E 15 16.09 Fair CLR 28 5 23% 27 75.87 0.0
06 16:55 E 6 14.48 Fair CLR 27 6 26% 26 75.87 0.0
06 16:35 E 13 G 24 16.09 Fair CLR 27 6 26% 26 75.87 0.0
06 16:15 Vrbl 6 G 20 16.09 Fair CLR 27 6 26% 26 75.9 0.0
06 15:55 SE 11 G 20 16.09 Fair CLR 27 6 26% 26 75.92 0.0
06 15:35 S 15 16.09 Fair CLR 26 6 28% 26 75.95 0.0
06 15:15 E 7 16.09 Fair CLR 25 6 30% 25 76 0.0
06 14:55 E 17 16.09 Fair CLR 26 6 28% 26 76 0.0
06 14:35 E 13 16.09 Fair CLR 25 6 30% 25 76.02 0.0
06 14:15 SE 17 16.09 Fair CLR 24 6 31% 25 76.02 0.0
06 13:55 E 17 16.09 Fair CLR 24 7 34% 25 76.05 0.0
06 13:35 E 13 G 26 16.09 Fair CLR 23 7 36% 76.07 0.0
06 13:10 E 15 16.09 Fair CLR 22 7 38% 76.1 0.0
06 12:55 E 19 G 28 16.09 Fair CLR 22 7 38% 76.1 0.0
06 12:35 E 20 16.09 Fair CLR 21 7 40% 76.12 0.0
06 12:15 E 22 G 31 16.09 Fair CLR 21 8 43% 76.12 0.0
06 11:55 NE 19 G 30 16.09 Fair CLR 20 8 46% 76.12 0.0
06 11:35 E 20 16.09 Fair CLR 20 8 46% 76.12 0.0
06 11:15 NE 22 16.09 Fair CLR 19 8 49% 76.1 0.0
06 10:55 NE 26 16.09 Fair CLR 19 9 52% 76.1 0.0
06 10:35 E 20 16.09 Fair CLR 19 9 52% 76.07 0.0
06 10:15 NE 20 G 31 16.09 Fair CLR 20 9 49% 76.05 0.0
06 09:55 NE 17 G 26 16.09 Fair CLR 21 8 43% 76.02 0.0
06 09:35 N 15 16.09 Fair CLR 23 2 25% 76 0.0
06 09:15 NW 13 16.09 Fair CLR 22 2 27% 76 0.0
06 08:55 N 15 16.09 Fair CLR 21 2 29% 75.97 0.0
06 08:35 N 9 16.09 Fair CLR 20 4 35% 75.95 0.0
06 08:15 N 11 16.09 Fair CLR 20 3 33% 75.92 0.0
06 07:55 NW 11 16.09 Fair CLR 20 2 30% 75.9 0.0
06 07:30 N 13 16.09 Fair CLR 20 2 30% 75.87 0.0
06 07:10 NW 13 16.09 Fair CLR 21 1 27% 75.84 0.0
06 06:55 NW 15 16.09 A Few Clouds FEW002 22 1 25% 75.84 0.0
06 06:35 NW 15 G 26 6.44 Partly Cloudy with Haze SCT002 SCT085 22 1 25% 75.82 0.0
06 06:15 W 17 16.09 Partly Cloudy SCT085 23 1 23% 75.82 0.0
06 05:55 W 19 16.09 Overcast OVC085 23 1 23% 75.82 0.0
06 05:35 W 19 16.09 Overcast OVC085 23 2 25% 75.79 0.0
06 05:15 W 19 16.09 Overcast OVC085 24 3 25% 25 75.79 0.0
06 04:55 W 15 16.09 Overcast OVC090 23 4 29% 75.79 0.0
06 04:35 W 11 16.09 Overcast OVC090 21 7 40% 75.79 0.0
06 04:15 W 11 16.09 Overcast OVC090 20 9 49% 75.79 0.0
06 03:55 Calm 16.09 Overcast OVC095 20 9 49% 75.77 0.0
06 03:35 Calm 16.09 Mostly Cloudy FEW075 BKN090 20 8 46% 75.77 0.0
06 03:15 Calm 16.09 A Few Clouds FEW065 FEW080 21 8 43% 75.77 0.0
06 02:55 S 7 16.09 Mostly Cloudy FEW050 SCT070 BKN090 21 7 40% 75.77 0.0
06 02:30 SE 9 16.09 Overcast FEW060 OVC085 21 8 43% 75.77 0.0
06 02:15 Calm 16.09 Overcast FEW048 OVC085 21 8 43% 75.77 0.0
06 01:55 Calm 16.09 Overcast FEW048 OVC085 21 7 40% 75.79 0.0
06 01:35 Calm 16.09 Overcast OVC080 20 8 46% 75.77 0.0
06 01:15 Calm 16.09 Overcast OVC080 20 8 46% 75.77 0.0
06 00:55 Calm 16.09 Overcast OVC075 21 7 40% 75.77 0.0
06 00:35 Calm 16.09 Overcast OVC070 22 6 36% 75.77 0.0
06 00:15 N 7 16.09 Overcast OVC070 22 7 38% 75.77 0.0
05 23:50 SE 7 16.09 Partly Cloudy SCT065 22 6 36% 75.74 0.0
05 23:35 S 6 16.09 Partly Cloudy SCT070 22 6 36% 75.72 0.0
05 23:15 SE 11 16.09 Mostly Cloudy BKN070 23 6 33% 75.69 0.0
05 22:55 SE 13 16.09 Fair CLR 23 6 33% 75.69 0.0
05 22:35 S 7 16.09 Fair CLR 24 5 29% 25 75.67 0.0
05 22:15 S 6 16.09 Fair CLR 24 5 29% 25 75.62 0.0
05 21:55 N 7 16.09 Fair CLR 24 5 29% 25 75.59 0.0
05 21:35 N 11 16.09 Fair CLR 25 5 28% 25 75.57 0.0
05 21:15 NW 9 16.09 Fair CLR 26 5 26% 26 75.59 0.0
05 20:55 Calm 16.09 Fair CLR 27 4 23% 26 75.59 0.0
05 20:35 Calm 16.09 Fair CLR 27 4 23% 26 75.59 0.0
05 20:15 W 9 16.09 Fair CLR 28 4 21% 27 75.59 0.0
05 19:55 NW 15 16.09 Fair CLR 28 3 20% 27 75.57 0.0
05 19:35 NW 17 G 28 16.09 Fair CLR 28 3 20% 27 75.59 0.0
05 19:15 NW 17 16.09 Fair CLR 28 3 20% 27 75.62 0.0
05 18:55 NW 20 16.09 Fair CLR 28 3 20% 27 75.62 0.0
05 18:35 NW 28 16.09 Fair CLR 28 3 20% 27 75.64 0.0
05 18:10 NW 31 G 41 16.09 Fair CLR 28 3 20% 27 75.64 0.0
05 17:55 NW 28 G 41 16.09 Fair CLR 28 3 20% 27 75.64 0.0
05 17:35 W 24 G 37 16.09 Fair CLR 29 3 19% 27 75.64 0.0
05 17:15 W 24 G 41 16.09 Fair CLR 29 3 19% 27 75.67 0.0
05 16:55 W 35 16.09 Fair and Breezy CLR 29 3 19% 27 75.67 0.0
05 16:35 W 33 G 43 16.09 Fair and Breezy CLR 29 3 19% 27 75.69 0.0
05 16:15 W 33 G 50 16.09 Fair and Breezy CLR 30 3 18% 28 75.69 0.0
05 15:55 W 33 G 43 16.09 Fair and Breezy CLR 30 2 17% 28 75.69 0.0
05 15:35 W 30 G 46 16.09 Fair CLR 31 3 17% 29 75.72 0.0
05 15:10 W 28 G 48 16.09 Fair CLR 30 2 17% 28 75.72 0.0
05 14:55 W 35 16.09 Fair and Breezy CLR 30 3 18% 28 75.72 0.0
05 14:35 W 30 G 39 16.09 Fair CLR 29 3 19% 27 75.74 0.0
05 14:15 W 28 G 39 16.09 Fair CLR 29 4 20% 27 75.74 0.0
05 13:55 W 31 G 41 16.09 Fair CLR 29 3 19% 27 75.74 0.0
05 13:35 NW 28 G 39 16.09 Fair CLR 30 3 18% 28 75.77 0.0
05 13:15 W 17 16.09 Fair CLR 29 3 19% 27 75.77 0.0
05 12:55 W 13 16.09 Fair CLR 29 3 19% 27 75.79 0.0
05 12:30 NW 20 G 31 16.09 Fair CLR 29 3 19% 27 75.79 0.0
05 12:15 NW 20 16.09 Fair CLR 29 2 18% 27 75.79 0.0
05 11:55 W 15 G 26 16.09 Fair CLR 28 2 19% 27 75.79 0.0
05 11:35 W 20 16.09 Fair CLR 28 2 19% 27 75.79 0.0
05 11:15 W 24 16.09 Fair CLR 28 3 20% 27 75.77 0.0
05 10:55 W 19 G 28 16.09 Fair CLR 27 3 21% 26 75.77 0.0
05 10:35 W 22 16.09 Fair CLR 26 4 24% 26 75.77 0.0
05 10:15 W 11 16.09 Fair CLR 25 5 28% 25 75.77 0.0
05 09:50 Calm 16.09 Fair CLR 23 7 36% 75.77 0.0
05 09:35 NW 9 16.09 Fair CLR 22 7 38% 75.74 0.0
05 09:15 NW 7 16.09 Fair CLR 21 9 46% 75.74 0.0
05 08:55 Calm 14.48 Fair CLR 21 12 57% 75.72 0.0
05 08:35 Calm 16.09 Fair CLR 20 14 69% 75.69 0.0
05 08:15 NE 7 16.09 Fair CLR 19 15 78% 75.69 0.0
05 07:55 SE 7 16.09 Fair CLR 18 16 88% 75.67 0.0
05 07:35 SE 7 16.09 Fair CLR 18 15 83% 75.64 0.0
05 07:15 Calm 16.09 Fair CLR 18 15 83% 75.62 0.0
05 06:55 Calm 16.09 Fair CLR 18 14 78% 75.62 0.0
05 06:35 Calm 16.09 Fair CLR 19 12 64% 75.59 0.0
05 06:15 Calm 16.09 Fair CLR 19 11 60% 75.59 0.0
05 05:55 NE 7 16.09 Fair CLR 20 12 60% 75.59 0.0
05 05:35 N 6 16.09 Fair CLR 21 9 46% 75.59 0.0
05 05:15 W 17 G 28 16.09 Fair CLR 23 5 31% 75.57 0.0
05 04:55 Vrbl 9 16.09 Fair CLR 20 13 64% 75.57 0.0
05 04:35 S 9 16.09 Fair CLR 21 12 57% 75.57 0.0
05 04:15 S 9 16.09 Fair CLR 20 15 73% 75.57 0.0
05 03:55 S 11 16.09 Fair CLR 20 15 73% 75.57 0.0
05 03:30 S 11 16.09 Fair CLR 21 15 69% 75.59 0.0
05 03:15 S 11 16.09 Fair CLR 21 14 64% 75.57 0.0
05 02:55 SE 11 16.09 Fair CLR 21 15 69% 75.59 0.0
05 02:35 SE 11 16.09 A Few Clouds FEW070 22 14 61% 75.59 0.0
05 02:15 S 11 16.09 Mostly Cloudy BKN070 22 14 61% 75.59 0.0
05 01:55 S 11 16.09 Overcast BKN075 OVC085 23 13 53% 75.62 0.0
05 01:35 S 11 16.09 Overcast OVC080 23 11 47% 75.64 0.0
05 01:15 S 11 16.09 Partly Cloudy SCT075 23 8 38% 75.64 0.0
05 00:55 Calm 16.09 A Few Clouds FEW070 24 6 31% 25 75.62 0.0
05 00:35 SW 9 16.09 A Few Clouds FEW070 25 5 28% 25 75.64 0.0
05 00:15 S 9 16.09 A Few Clouds FEW070 24 5 29% 25 75.62 0.0
04 23:55 SW 9 16.09 Fair CLR 24 5 29% 25 75.64 0.0
04 23:35 SW 7 16.09 Fair CLR 24 5 29% 25 75.67 0.0
04 23:15 S 6 16.09 Fair CLR 26 4 24% 26 75.64 0.0
04 22:55 SW 9 16.09 Fair CLR 26 4 24% 26 75.62 0.0
04 22:35 Calm 16.09 Fair CLR 26 3 23% 26 75.59 0.0
04 22:15 Calm 16.09 Fair CLR 27 2 20% 26 75.62 0.0
04 21:55 SW 9 16.09 Fair CLR 27 2 20% 26 75.62 0.0
04 21:30 SW 9 16.09 Fair CLR 27 1 18% 26 75.59 0.0
04 21:15 W 11 16.09 Fair CLR 28 1 17% 27 75.59 0.0
04 20:55 W 11 16.09 Fair CLR 29 0 15% 27 75.57 0.0
04 20:35 W 15 G 24 16.09 Fair CLR 30 -1 13% 28 75.54 0.0
04 20:15 W 20 16.09 Fair CLR 31 -1 13% 29 75.54 0.0
04 19:55 W 19 G 31 16.09 Fair CLR 31 -1 13% 29 75.54 0.0
04 19:35 W 24 16.09 Fair CLR 32 -2 11% 30 75.54 0.0
04 19:15 W 26 G 41 16.09 Fair CLR 32 -2 11% 30 75.57 0.0
04 18:55 W 22 G 39 16.09 Fair CLR 33 -2 10% 31 75.57 0.0
04 18:35 W 30 G 41 16.09 Fair CLR 33 -2 10% 31 75.57 0.0
04 18:15 SW 24 G 39 16.09 Fair CLR 33 -2 10% 31 75.59 0.0
04 17:55 SW 30 G 43 16.09 Fair CLR 33 -2 10% 31 75.59 0.0
04 17:35 SW 26 G 39 16.09 Fair CLR 33 -2 10% 31 75.59 0.0
04 17:15 W 20 G 43 16.09 Fair CLR 33 1 13% 31 75.59 0.0
04 16:55 W 39 G 54 14.48 Fair and Breezy CLR 34 1 12% 31 75.62 0.0
04 16:35 SW 28 G 43 16.09 Fair CLR 33 4 16% 31 75.64 0.0
Date Time (cdt) Wind (kph) Vis. (km) Weather Sky Cond. Air Dwpt Max. Min. Relative Humidity Wind Chill (°C) Heat Index (°C) altimeter (cm) sea level (mb) 1 hr 3 hr 6 hr
6 hour
Temperature (ºC) Pressure Precipitation (cm)